Time;durP1;ratioP1;P1;durP2;ratioP2;P2;SDS_P1;SDS_P2;PMS_P1;PMS_P2;Temp;Humidity;BMP_temperature;BMP_pressure;BME280_temperature;BME280_humidity;BME280_pressure;Samples;Min_cycle;Max_cycle;Signal;HPM_P1;HPM_P2
2021/12/22 00:01:51;;;;;;;24.98;9.48;;;0.80;99.90;;;;;;4957406;29;20059;-38
2021/12/22 00:04:22;;;;;;;29.80;10.35;;;0.70;99.90;;;;;;4957707;29;20444;-35
2021/12/22 00:06:48;;;;;;;22.42;9.23;;;0.60;99.90;;;;;;4947560;29;20078;-35
2021/12/22 00:09:14;;;;;;;28.67;9.57;;;0.60;99.90;;;;;;4952920;29;20444;-32
2021/12/22 00:11:40;;;;;;;21.15;10.27;;;0.70;99.90;;;;;;4938106;29;20066;-37
2021/12/22 00:14:05;;;;;;;25.67;9.68;;;0.60;99.90;;;;;;4953922;29;20027;-34
2021/12/22 00:16:31;;;;;;;20.35;9.45;;;0.60;99.90;;;;;;4955501;29;20020;-33
2021/12/22 00:18:57;;;;;;;31.95;10.95;;;0.60;99.90;;;;;;4956242;29;20039;-34
2021/12/22 00:21:23;;;;;;;21.65;10.13;;;0.60;99.90;;;;;;4954638;28;20063;-34
2021/12/22 00:23:48;;;;;;;27.60;9.95;;;0.50;99.90;;;;;;4954039;29;20502;-31
2021/12/22 00:26:15;;;;;;;20.48;10.10;;;0.60;99.90;;;;;;4954741;29;20035;-36
2021/12/22 00:28:41;;;;;;;26.95;10.05;;;0.60;99.90;;;;;;4956376;29;20434;-31
2021/12/22 00:31:13;;;;;;;26.42;9.40;;;0.70;99.90;;;;;;4956886;29;20031;-34
2021/12/22 00:33:46;;;;;;;25.60;10.27;;;0.70;99.90;;;;;;4956276;29;20464;-40
2021/12/22 00:36:13;;;;;;;24.23;9.98;;;0.70;99.90;;;;;;4956984;29;20085;-37
2021/12/22 00:38:38;;;;;;;23.75;9.73;;;0.70;99.90;;;;;;4938954;29;20023;-34
2021/12/22 00:41:05;;;;;;;22.45;10.60;;;0.70;99.90;;;;;;4956243;29;20492;-33
2021/12/22 00:43:31;;;;;;;25.02;11.25;;;0.60;99.90;;;;;;4938540;29;20408;-33
2021/12/22 00:45:57;;;;;;;28.02;9.57;;;0.70;99.90;;;;;;4956555;29;20043;-35
2021/12/22 00:48:24;;;;;;;26.02;10.48;;;0.70;99.90;;;;;;4956241;29;20603;-35
2021/12/22 00:50:49;;;;;;;23.55;9.88;;;0.70;99.90;;;;;;4956222;29;20039;-33
2021/12/22 00:53:15;;;;;;;23.92;9.50;;;0.70;99.90;;;;;;4937613;29;20083;-31
2021/12/22 00:55:41;;;;;;;25.58;11.23;;;0.60;99.90;;;;;;4956238;29;20047;-32
2021/12/22 00:58:07;;;;;;;25.17;10.93;;;0.60;99.90;;;;;;4956693;29;20479;-31
2021/12/22 01:00:34;;;;;;;28.38;10.75;;;0.60;99.90;;;;;;4955881;29;20031;-31
2021/12/22 01:03:00;;;;;;;27.13;9.95;;;0.60;99.90;;;;;;4956120;29;20031;-36
2021/12/22 01:05:26;;;;;;;30.73;10.73;;;0.70;99.90;;;;;;4955755;29;20031;-37
2021/12/22 01:07:52;;;;;;;29.77;10.98;;;0.60;99.90;;;;;;4956008;29;20067;-33
2021/12/22 01:10:27;;;;;;;22.80;10.20;;;0.70;99.90;;;;;;4956200;29;20031;-34
2021/12/22 01:12:55;;;;;;;26.85;10.50;;;0.60;99.90;;;;;;4956221;29;20023;-36
2021/12/22 01:15:22;;;;;;;;;;;0.60;99.90;;;;;;4956539;29;20027;-34
2021/12/22 01:17:51;;;;;;;21.60;10.07;;;0.60;99.90;;;;;;4956066;29;19945;-37
2021/12/22 01:20:27;;;;;;;21.63;9.75;;;0.50;99.90;;;;;;4956056;29;20047;-38
2021/12/22 01:23:02;;;;;;;29.23;10.05;;;0.50;99.90;;;;;;4955904;29;20518;-37
2021/12/22 01:25:28;;;;;;;27.85;9.63;;;0.40;99.90;;;;;;4944935;29;20040;-34
2021/12/22 01:27:54;;;;;;;20.63;9.27;;;0.30;99.90;;;;;;4956244;29;20483;-35
2021/12/22 01:30:25;;;;;;;27.08;9.32;;;0.20;99.90;;;;;;4947032;29;20032;-33
2021/12/22 01:32:54;;;;;;;24.23;10.40;;;0.20;99.90;;;;;;4942122;29;20089;-30
2021/12/22 01:35:23;;;;;;;27.85;10.07;;;0.20;99.90;;;;;;4955764;29;20483;-33
2021/12/22 01:37:49;;;;;;;21.90;9.55;;;0.20;99.90;;;;;;4955707;29;20074;-34
2021/12/22 01:40:16;;;;;;;21.75;9.98;;;0.30;99.90;;;;;;4955692;29;20039;-35
2021/12/22 01:42:43;;;;;;;28.23;9.30;;;0.30;99.90;;;;;;4945471;29;20365;-31
2021/12/22 01:45:47;;;;;;;19.13;9.25;;;0.30;99.90;;;;;;4947886;29;20406;-34
2021/12/22 01:51:05;;;;;;;23.55;9.38;;;0.40;99.90;;;;;;4955323;29;20053;-34
2021/12/22 01:53:46;;;;;;;23.27;9.75;;;0.50;99.90;;;;;;4955256;29;20019;-31
2021/12/22 01:58:48;;;;;;;23.52;9.57;;;0.50;99.90;;;;;;4955867;29;20050;-31
2021/12/22 02:01:15;;;;;;;30.05;10.07;;;0.40;99.90;;;;;;4954917;29;20031;-34
2021/12/22 02:03:42;;;;;;;30.33;9.40;;;0.40;99.90;;;;;;4954946;29;20082;-38
2021/12/22 02:06:08;;;;;;;23.88;8.80;;;0.40;99.90;;;;;;4955152;29;20539;-41
2021/12/22 02:08:35;;;;;;;23.27;9.15;;;0.40;99.90;;;;;;4938953;29;20031;-32
2021/12/22 02:11:02;;;;;;;28.25;9.45;;;0.50;99.90;;;;;;4952072;29;20052;-37
2021/12/22 02:13:32;;;;;;;23.58;9.27;;;0.50;99.90;;;;;;4953659;29;20023;-34
2021/12/22 02:16:07;;;;;;;26.35;10.05;;;0.50;99.90;;;;;;4954988;29;20480;-37
2021/12/22 02:18:38;;;;;;;27.23;8.93;;;0.50;99.90;;;;;;4954448;29;20047;-30
2021/12/22 02:21:05;;;;;;;27.63;9.70;;;0.40;99.90;;;;;;4955030;29;20066;-34
2021/12/22 02:23:31;;;;;;;23.25;9.32;;;0.30;99.90;;;;;;4954532;29;20039;-33
2021/12/22 02:26:04;;;;;;;23.27;8.77;;;0.30;99.90;;;;;;4954080;29;20031;-32
2021/12/22 02:28:33;;;;;;;25.38;8.70;;;0.20;99.90;;;;;;4954837;29;20023;-33
2021/12/22 02:30:59;;;;;;;29.45;8.88;;;0.20;99.90;;;;;;4954953;29;20488;-32
2021/12/22 02:33:33;;;;;;;21.30;8.30;;;0.20;99.90;;;;;;4954914;29;20019;-31
2021/12/22 02:38:29;;;;;;;16.92;8.00;;;0.00;99.90;;;;;;4938377;29;20039;-32
2021/12/22 02:40:55;;;;;;;22.17;7.97;;;0.00;99.90;;;;;;4954681;29;20038;-32
2021/12/22 02:43:23;;;;;;;20.33;8.93;;;0.00;99.90;;;;;;4954206;28;20484;-30
2021/12/22 02:45:49;;;;;;;;;;;0.00;99.90;;;;;;4955023;29;20034;-30
2021/12/22 02:48:15;;;;;;;18.05;8.88;;;0.00;99.90;;;;;;4954896;29;20319;-34
2021/12/22 02:50:42;;;;;;;21.80;8.65;;;0.00;99.90;;;;;;4954621;29;20031;-31
2021/12/22 02:53:12;;;;;;;20.58;8.45;;;0.00;99.90;;;;;;4954391;29;20495;-31
2021/12/22 02:58:42;;;;;;;20.67;7.80;;;0.00;99.90;;;;;;4954729;29;20122;-32
2021/12/22 03:01:25;;;;;;;24.02;7.93;;;0.00;99.90;;;;;;4954253;29;20031;-31
2021/12/22 03:06:30;;;;;;;23.60;8.85;;;-0.10;99.90;;;;;;4954721;29;20039;-30
2021/12/22 03:08:56;;;;;;;25.83;10.32;;;-0.10;99.90;;;;;;4954256;29;20035;-32
2021/12/22 03:11:22;;;;;;;20.67;8.73;;;-0.20;99.90;;;;;;4954480;29;20082;-34
2021/12/22 03:13:48;;;;;;;19.85;8.68;;;-0.20;99.90;;;;;;4954476;29;20528;-35
2021/12/22 03:16:13;;;;;;;23.42;9.27;;;-0.10;99.90;;;;;;4954278;29;20035;-38
2021/12/22 03:18:39;;;;;;;16.80;8.02;;;-0.10;99.90;;;;;;4954405;29;20020;-32
2021/12/22 03:21:19;;;;;;;23.58;9.70;;;-0.10;99.90;;;;;;4954124;29;20369;-34
2021/12/22 03:23:45;;;;;;;26.80;8.63;;;0.00;99.90;;;;;;4954337;29;20082;-31
2021/12/22 03:26:14;;;;;;;23.67;8.93;;;0.00;99.90;;;;;;4954619;29;20031;-35
2021/12/22 03:28:40;;;;;;;20.05;7.97;;;-0.10;99.90;;;;;;4950971;29;20035;-36
2021/12/22 03:31:06;;;;;;;24.40;8.85;;;-0.10;99.90;;;;;;4953325;29;20499;-39
2021/12/22 03:33:31;;;;;;;25.60;9.15;;;-0.10;99.90;;;;;;4954180;28;20028;-33
2021/12/22 03:35:57;;;;;;;22.92;9.15;;;-0.10;99.90;;;;;;4953567;29;20115;-32
2021/12/22 03:38:22;;;;;;;21.33;8.48;;;0.00;99.90;;;;;;4953566;29;20034;-36
2021/12/22 03:40:48;;;;;;;25.33;10.02;;;0.00;99.90;;;;;;4953768;29;20090;-31
2021/12/22 03:43:14;;;;;;;26.75;10.60;;;0.00;99.90;;;;;;4954018;29;20048;-36
2021/12/22 03:45:39;;;;;;;25.15;9.40;;;0.00;99.90;;;;;;4953798;29;20487;-39
2021/12/22 03:48:05;;;;;;;27.40;9.88;;;0.00;99.90;;;;;;4953995;29;20105;-36
2021/12/22 03:50:31;;;;;;;19.42;8.93;;;0.00;99.90;;;;;;4954308;28;20548;-32
2021/12/22 03:52:56;;;;;;;21.35;9.55;;;0.00;99.90;;;;;;4953957;29;20038;-35
2021/12/22 03:55:22;;;;;;;22.30;9.75;;;-0.10;99.90;;;;;;4953943;28;20464;-30
2021/12/22 03:57:50;;;;;;;28.45;10.13;;;0.00;99.90;;;;;;4957502;29;20023;-33
2021/12/22 04:00:16;;;;;;;21.70;9.23;;;0.00;99.90;;;;;;4957657;29;20038;-31
2021/12/22 04:02:42;;;;;;;25.13;9.68;;;0.00;99.90;;;;;;4957601;29;20425;-34
2021/12/22 04:05:08;;;;;;;33.08;8.70;;;0.00;99.90;;;;;;4957313;29;20067;-33
2021/12/22 04:07:34;;;;;;;29.35;9.95;;;0.00;99.90;;;;;;4952229;29;20032;-35
2021/12/22 04:10:09;;;;;;;22.70;9.13;;;0.00;99.90;;;;;;4957519;29;20496;-32
2021/12/22 04:12:34;;;;;;;24.17;9.15;;;0.00;99.90;;;;;;4957449;29;20031;-34
2021/12/22 04:15:00;;;;;;;27.05;9.38;;;-0.10;99.90;;;;;;4957058;29;20540;-30
2021/12/22 04:17:25;;;;;;;26.02;8.90;;;-0.20;99.90;;;;;;4956816;29;20026;-31
2021/12/22 04:19:51;;;;;;;30.58;9.52;;;-0.20;99.90;;;;;;4956828;29;20041;-32
2021/12/22 04:22:17;;;;;;;21.42;9.40;;;-0.20;99.90;;;;;;4956308;29;20078;-35
2021/12/22 04:24:42;;;;;;;23.33;10.05;;;-0.20;99.90;;;;;;4956792;29;20027;-33
2021/12/22 04:27:08;;;;;;;18.38;9.48;;;-0.20;99.90;;;;;;4956773;29;20507;-34
2021/12/22 04:29:33;;;;;;;20.90;9.40;;;-0.20;99.90;;;;;;4957217;29;20104;-31
2021/12/22 04:31:59;;;;;;;22.38;9.00;;;-0.30;99.90;;;;;;4956395;29;20030;-33
2021/12/22 04:34:25;;;;;;;20.08;8.90;;;-0.30;99.90;;;;;;4956682;29;20114;-32
2021/12/22 04:36:50;;;;;;;21.55;9.75;;;-0.30;99.90;;;;;;4956605;29;20485;-32
2021/12/22 04:39:16;;;;;;;31.65;10.05;;;-0.10;99.90;;;;;;4956894;29;20035;-30
2021/12/22 04:41:42;;;;;;;23.05;10.32;;;-0.20;99.90;;;;;;4956385;28;20024;-40
2021/12/22 04:44:07;;;;;;;22.27;7.78;;;-0.10;99.90;;;;;;4956653;29;20050;-31
2021/12/22 04:46:33;;;;;;;26.00;8.93;;;-0.20;99.90;;;;;;4956825;29;20023;-37
2021/12/22 04:48:59;;;;;;;22.90;9.07;;;-0.30;99.90;;;;;;4956076;29;20392;-37
2021/12/22 04:51:30;;;;;;;27.40;10.00;;;-0.40;99.90;;;;;;4938929;29;20050;-33
2021/12/22 04:54:04;;;;;;;26.15;9.80;;;-0.40;99.90;;;;;;4955211;29;20473;-33
2021/12/22 04:56:31;;;;;;;21.58;8.50;;;-0.40;99.90;;;;;;4955587;29;20027;-29
2021/12/22 04:58:56;;;;;;;19.17;8.25;;;-0.50;99.90;;;;;;4956227;29;20074;-37
2021/12/22 05:01:22;;;;;;;26.20;9.90;;;-0.40;99.90;;;;;;4956552;28;20436;-33
2021/12/22 05:03:48;;;;;;;19.90;8.23;;;-0.40;99.90;;;;;;4956106;29;20066;-36
2021/12/22 05:06:13;;;;;;;20.35;9.07;;;-0.40;99.90;;;;;;4956033;29;20499;-40
2021/12/22 05:08:39;;;;;;;21.25;8.68;;;-0.40;99.90;;;;;;4955596;28;20547;-30
2021/12/22 05:11:05;;;;;;;26.75;9.85;;;-0.40;99.90;;;;;;4955268;29;20027;-32
2021/12/22 05:13:33;;;;;;;22.52;9.05;;;-0.40;99.90;;;;;;4955658;29;20047;-30
2021/12/22 05:15:59;;;;;;;30.70;9.90;;;-0.50;99.90;;;;;;4955832;29;20023;-31
2021/12/22 05:18:47;;;;;;;23.02;10.32;;;-0.40;99.90;;;;;;4954384;29;20031;-33
2021/12/22 05:21:10;;;;;;;28.10;9.15;;;-0.40;99.90;;;;;;4955040;29;20039;-33
2021/12/22 05:23:36;;;;;;;27.00;10.05;;;-0.50;99.90;;;;;;4955879;29;20046;-30
2021/12/22 05:26:02;;;;;;;31.30;8.45;;;-0.50;99.90;;;;;;4955600;29;20495;-31
2021/12/22 05:28:27;;;;;;;29.73;9.35;;;-0.50;99.90;;;;;;4955102;29;20023;-33
2021/12/22 05:30:53;;;;;;;19.95;9.00;;;-0.50;99.90;;;;;;4955505;29;20027;-35
2021/12/22 05:33:18;;;;;;;32.90;10.70;;;-0.50;99.90;;;;;;4955685;29;20094;-32
2021/12/22 05:35:44;;;;;;;32.47;10.68;;;-0.50;99.90;;;;;;4955419;29;20101;-34
2021/12/22 05:38:10;;;;;;;23.73;8.32;;;-0.50;99.90;;;;;;4955624;29;20456;-31
2021/12/22 05:40:36;;;;;;;29.58;9.98;;;-0.60;99.90;;;;;;4955112;28;20125;-33
2021/12/22 05:43:01;;;;;;;23.15;9.65;;;-0.60;99.90;;;;;;4955193;29;20042;-33
2021/12/22 05:45:27;;;;;;;30.70;10.70;;;-0.60;99.90;;;;;;4955595;29;20484;-30
2021/12/22 05:47:53;;;;;;;25.42;9.25;;;-0.70;99.90;;;;;;4955028;29;20439;-31
2021/12/22 05:50:21;;;;;;;24.42;9.13;;;-0.70;99.90;;;;;;4954884;29;20122;-32
2021/12/22 05:52:46;;;;;;;27.77;9.48;;;-0.70;99.90;;;;;;4955435;29;20023;-35
2021/12/22 05:55:12;;;;;;;20.40;8.93;;;-0.70;99.90;;;;;;4955334;29;20547;-37
2021/12/22 05:57:38;;;;;;;25.20;10.57;;;-0.80;99.90;;;;;;4954756;29;20082;-37
2021/12/22 06:00:05;;;;;;;24.65;9.68;;;-0.80;99.90;;;;;;4954625;29;20023;-34
2021/12/22 06:02:31;;;;;;;24.25;9.35;;;-0.80;99.90;;;;;;4955085;29;20035;-34
2021/12/22 06:04:56;;;;;;;33.05;9.98;;;-0.70;99.90;;;;;;4954895;29;20039;-36
2021/12/22 06:07:22;;;;;;;27.90;9.63;;;-0.80;99.90;;;;;;4955084;29;20440;-36
2021/12/22 06:09:48;;;;;;;35.28;9.45;;;-0.70;99.90;;;;;;4954606;29;20450;-34
2021/12/22 06:12:13;;;;;;;26.25;9.18;;;-0.70;99.90;;;;;;4954852;29;20023;-33
2021/12/22 06:14:39;;;;;;;24.05;9.63;;;-0.70;99.90;;;;;;4954463;29;20030;-31
2021/12/22 06:17:05;;;;;;;33.33;10.15;;;-0.70;99.90;;;;;;4954701;29;20498;-31
2021/12/22 06:19:31;;;;;;;26.90;9.35;;;-0.80;99.90;;;;;;4954411;28;20447;-33
2021/12/22 06:21:57;;;;;;;21.25;9.02;;;-0.80;99.90;;;;;;4954432;29;20500;-35
2021/12/22 06:24:22;;;;;;;25.25;8.73;;;-0.90;99.90;;;;;;4952445;29;20082;-33
2021/12/22 06:26:48;;;;;;;22.63;8.38;;;-0.90;99.90;;;;;;4947866;29;20038;-37
2021/12/22 06:29:14;;;;;;;24.00;9.35;;;-0.90;99.90;;;;;;4954467;29;20031;-36
2021/12/22 06:31:39;;;;;;;25.38;9.35;;;-0.90;99.90;;;;;;4954590;29;20032;-34
2021/12/22 06:34:06;;;;;;;31.13;9.85;;;-0.90;99.90;;;;;;4944307;29;20027;-32
2021/12/22 06:36:32;;;;;;;37.50;9.65;;;-1.00;99.90;;;;;;4954879;29;20494;-38
2021/12/22 06:38:58;;;;;;;20.23;8.88;;;-0.90;99.90;;;;;;4936523;29;20649;-35
2021/12/22 06:41:24;;;;;;;24.88;8.40;;;-0.80;99.90;;;;;;4953278;29;20019;-40
2021/12/22 06:43:50;;;;;;;19.05;8.15;;;-0.80;99.90;;;;;;4954489;29;20495;-29
2021/12/22 06:46:15;;;;;;;27.98;8.20;;;-0.90;99.90;;;;;;4953928;29;20108;-37
2021/12/22 06:48:41;;;;;;;28.63;9.23;;;-0.80;99.90;;;;;;4954705;29;20507;-34
2021/12/22 06:51:07;;;;;;;22.73;8.27;;;-0.90;99.90;;;;;;4954023;29;20467;-32
2021/12/22 06:53:34;;;;;;;23.08;8.48;;;-0.80;99.90;;;;;;4954417;29;20376;-32
2021/12/22 06:56:01;;;;;;;26.73;8.30;;;-0.90;99.90;;;;;;4954927;29;20462;-37
2021/12/22 06:58:26;;;;;;;30.58;8.68;;;-0.90;99.90;;;;;;4953131;29;20357;-33
2021/12/22 07:00:52;;;;;;;26.25;9.60;;;-1.00;99.90;;;;;;4954216;29;20130;-33
2021/12/22 07:03:18;;;;;;;30.40;8.52;;;-1.00;99.90;;;;;;4954157;29;20439;-30
2021/12/22 07:05:43;;;;;;;28.20;9.57;;;-1.00;99.90;;;;;;4954076;29;20114;-30
2021/12/22 07:08:09;;;;;;;24.08;8.48;;;-0.90;99.90;;;;;;4954718;29;20023;-30
2021/12/22 07:10:35;;;;;;;23.05;9.45;;;-1.00;99.90;;;;;;4953654;29;20023;-36
2021/12/22 07:13:00;;;;;;;27.60;9.85;;;-1.00;99.90;;;;;;4953762;29;20023;-42
2021/12/22 07:15:26;;;;;;;27.63;9.40;;;-1.00;99.90;;;;;;4953654;29;20027;-35
2021/12/22 07:17:52;;;;;;;26.88;9.15;;;-1.10;99.90;;;;;;4953996;29;20032;-32
2021/12/22 07:20:19;;;;;;;24.40;9.65;;;-1.00;99.90;;;;;;4953014;29;20408;-29
2021/12/22 07:22:45;;;;;;;28.98;9.45;;;-1.00;99.90;;;;;;4953820;29;20031;-30
2021/12/22 07:25:13;;;;;;;23.33;8.60;;;-1.00;99.90;;;;;;4954057;29;20495;-31
2021/12/22 07:27:39;;;;;;;21.92;8.85;;;-0.90;99.90;;;;;;4953553;29;20028;-34
2021/12/22 07:30:06;;;;;;;22.75;8.75;;;-0.90;99.90;;;;;;4954174;28;20035;-33
2021/12/22 07:32:32;;;;;;;31.45;8.88;;;-0.90;99.90;;;;;;4956708;29;20027;-35
2021/12/22 07:35:09;;;;;;;31.17;9.77;;;-0.90;99.90;;;;;;4957601;29;20397;-33
2021/12/22 07:37:40;;;;;;;33.85;10.98;;;-1.00;99.90;;;;;;4957651;29;20023;-36
2021/12/22 07:40:09;;;;;;;36.35;11.13;;;-1.00;99.90;;;;;;4957373;29;20139;-31
2021/12/22 07:42:35;;;;;;;22.67;8.07;;;-1.10;99.90;;;;;;4939944;29;20027;-33
2021/12/22 07:45:01;;;;;;;23.98;8.95;;;-1.10;99.90;;;;;;4957624;29;20460;-37
2021/12/22 07:47:27;;;;;;;23.65;9.07;;;-1.00;99.90;;;;;;4957571;29;20063;-33
2021/12/22 07:49:52;;;;;;;26.25;8.95;;;-1.00;99.90;;;;;;4957463;29;20036;-35
2021/12/22 07:52:18;;;;;;;22.92;8.75;;;-0.90;99.90;;;;;;4957289;29;20034;-36
2021/12/22 07:54:44;;;;;;;38.92;9.93;;;-0.90;99.90;;;;;;4957563;29;20023;-46
2021/12/22 07:57:09;;;;;;;25.35;9.40;;;-0.90;99.90;;;;;;4956732;29;20023;-33
2021/12/22 07:59:35;;;;;;;29.48;8.82;;;-1.00;99.90;;;;;;4957218;29;20500;-36
2021/12/22 08:02:01;;;;;;;21.27;8.75;;;-1.00;99.90;;;;;;4939737;29;20488;-31
2021/12/22 08:04:28;;;;;;;33.45;10.13;;;-1.00;99.90;;;;;;4957051;29;20031;-33
2021/12/22 08:06:54;;;;;;;24.20;7.72;;;-1.00;99.90;;;;;;4957088;29;20395;-31
2021/12/22 08:09:25;;;;;;;18.02;8.63;;;-1.00;99.90;;;;;;4956580;29;20043;-33
2021/12/22 08:11:53;;;;;;;27.42;9.15;;;-1.00;99.90;;;;;;4956745;29;20100;-31
2021/12/22 08:14:18;;;;;;;30.83;9.75;;;-1.00;99.90;;;;;;4957510;29;20530;-34
2021/12/22 08:16:44;;;;;;;19.65;8.23;;;-0.90;99.90;;;;;;4956294;29;20028;-32
2021/12/22 08:19:10;;;;;;;24.45;8.77;;;-0.90;99.90;;;;;;4957052;29;20032;-33
2021/12/22 08:21:36;;;;;;;24.02;8.75;;;-0.80;99.90;;;;;;4957140;29;20380;-41
2021/12/22 08:24:01;;;;;;;30.08;9.35;;;-0.80;99.90;;;;;;4957142;29;20032;-31
2021/12/22 08:26:27;;;;;;;15.70;7.95;;;-0.70;99.90;;;;;;4955920;29;20019;-36
2021/12/22 08:28:53;;;;;;;22.20;8.77;;;-0.80;99.90;;;;;;4956857;29;20023;-30
2021/12/22 08:31:18;;;;;;;23.08;8.40;;;-0.80;99.90;;;;;;4939425;29;20039;-33
2021/12/22 08:33:46;;;;;;;24.60;7.88;;;-0.70;99.90;;;;;;4956776;29;20031;-37
2021/12/22 08:38:58;;;;;;;22.17;7.95;;;-0.60;99.90;;;;;;4956882;29;20043;-33
2021/12/22 08:41:29;;;;;;;28.52;9.18;;;-0.60;99.90;;;;;;4956149;28;20428;-35
2021/12/22 08:43:57;;;;;;;28.17;8.32;;;-0.50;99.90;;;;;;4956075;29;20081;-36
2021/12/22 08:49:08;;;;;;;33.05;9.18;;;-0.50;99.90;;;;;;4953207;29;20388;-37
2021/12/22 08:51:34;;;;;;;23.60;9.05;;;-0.50;99.90;;;;;;4938271;29;20504;-32
2021/12/22 08:54:00;;;;;;;24.17;8.10;;;-0.50;99.90;;;;;;4956367;29;20027;-37
2021/12/22 08:56:27;;;;;;;28.73;7.93;;;-0.40;99.90;;;;;;4956139;29;20033;-36
2021/12/22 08:58:54;;;;;;;21.75;8.82;;;-0.40;99.90;;;;;;4955503;29;20459;-32
2021/12/22 09:01:20;;;;;;;24.60;8.63;;;-0.40;99.90;;;;;;4954812;29;20027;-36
2021/12/22 09:03:46;;;;;;;23.55;8.93;;;-0.30;99.90;;;;;;4955526;29;20526;-34
2021/12/22 09:06:12;;;;;;;26.98;9.88;;;-0.20;99.90;;;;;;4950420;29;20118;-32
2021/12/22 09:08:39;;;;;;;22.15;10.77;;;-0.20;99.90;;;;;;4955211;29;20460;-34
2021/12/22 09:11:05;;;;;;;19.83;7.43;;;-0.10;99.90;;;;;;4955695;29;20495;-33
2021/12/22 09:13:30;;;;;;;25.50;9.45;;;0.00;99.90;;;;;;4956028;29;20015;-34
2021/12/22 09:15:56;;;;;;;17.70;7.88;;;0.00;99.90;;;;;;4956143;29;20567;-34
2021/12/22 09:18:22;;;;;;;19.38;7.45;;;0.10;99.90;;;;;;4953227;29;20062;-31
2021/12/22 09:20:48;;;;;;;28.15;9.57;;;0.10;99.90;;;;;;4947639;29;20035;-38
2021/12/22 09:23:14;;;;;;;19.10;8.73;;;0.20;99.90;;;;;;4938813;29;20543;-33
2021/12/22 09:25:40;;;;;;;21.90;8.80;;;0.20;99.90;;;;;;4955823;29;20522;-32
2021/12/22 09:28:06;;;;;;;19.35;8.70;;;0.30;99.90;;;;;;4955014;29;20031;-37
2021/12/22 09:30:35;;;;;;;26.75;7.85;;;0.40;99.90;;;;;;4955595;29;20480;-33
2021/12/22 09:33:05;;;;;;;21.95;8.77;;;0.40;99.90;;;;;;4955440;29;20031;-34
2021/12/22 09:35:31;;;;;;;22.08;7.35;;;0.50;99.90;;;;;;4955100;29;20130;-33
2021/12/22 09:37:56;;;;;;;19.20;7.95;;;0.50;99.90;;;;;;4955879;29;20102;-34
2021/12/22 09:40:22;;;;;;;24.80;11.68;;;0.50;99.90;;;;;;4955253;29;20031;-31
2021/12/22 09:42:48;;;;;;;68.05;23.85;;;0.50;99.90;;;;;;4954670;29;20510;-35
2021/12/22 09:45:15;;;;;;;29.27;12.65;;;0.60;99.90;;;;;;4954286;29;20126;-34
2021/12/22 09:48:02;;;;;;;17.48;6.53;;;0.60;99.90;;;;;;4954926;29;20086;-32
2021/12/22 09:53:05;;;;;;;28.92;9.10;;;0.70;99.90;;;;;;4955342;28;20031;-29
2021/12/22 09:55:34;;;;;;;23.75;8.00;;;0.70;99.90;;;;;;4954827;29;20503;-32
2021/12/22 09:58:02;;;;;;;23.92;9.35;;;0.70;99.90;;;;;;4937813;29;20023;-37
2021/12/22 10:00:28;;;;;;;20.25;8.10;;;0.70;99.90;;;;;;4947384;29;20539;-36
2021/12/22 10:02:53;;;;;;;21.30;10.57;;;0.80;99.90;;;;;;4954602;29;20031;-29
2021/12/22 10:05:19;;;;;;;25.15;9.20;;;0.80;99.90;;;;;;4955421;29;20086;-35
2021/12/22 10:07:45;;;;;;;16.25;7.97;;;0.80;99.90;;;;;;4954692;29;20063;-39
2021/12/22 10:10:13;;;;;;;22.65;8.68;;;0.80;99.90;;;;;;4954891;29;20027;-34
2021/12/22 10:12:39;;;;;;;;;;;0.80;99.90;;;;;;4954687;29;20078;-32
2021/12/22 10:15:07;;;;;;;20.70;9.40;;;0.80;99.90;;;;;;4937425;29;20428;-33
2021/12/22 10:17:42;;;;;;;21.08;7.15;;;0.90;99.90;;;;;;4947297;29;20494;-31
2021/12/22 10:20:17;;;;;;;27.60;7.95;;;1.00;99.90;;;;;;4946464;29;20443;-31
2021/12/22 10:22:48;;;;;;;23.55;8.60;;;1.10;99.90;;;;;;4951353;29;20260;-32
2021/12/22 10:25:21;;;;;;;19.95;8.40;;;1.10;99.90;;;;;;4944683;29;20035;-37
2021/12/22 10:28:01;;;;;;;20.90;8.82;;;1.20;99.90;;;;;;4946719;29;20737;-33
2021/12/22 10:30:34;;;;;;;27.08;9.80;;;1.30;99.90;;;;;;4953775;29;20035;-34
2021/12/22 10:33:15;;;;;;;20.02;8.85;;;1.40;99.90;;;;;;4954571;29;20114;-33
2021/12/22 10:35:43;;;;;;;19.83;9.18;;;1.50;99.90;;;;;;4948877;29;20023;-34
2021/12/22 10:38:11;;;;;;;21.50;8.40;;;1.50;99.90;;;;;;4946001;29;20034;-33
2021/12/22 10:40:42;;;;;;;27.63;13.55;;;1.60;99.90;;;;;;4946165;29;20035;-40
2021/12/22 10:43:16;;;;;;;24.00;8.25;;;1.70;99.90;;;;;;4948888;29;20023;-37
2021/12/22 10:45:44;;;;;;;24.67;8.57;;;1.80;99.90;;;;;;4946745;29;20055;-34
2021/12/22 10:50:57;;;;;;;23.27;7.82;;;1.90;99.90;;;;;;4950106;29;19925;-34
2021/12/22 10:53:24;;;;;;;20.90;8.15;;;1.90;99.90;;;;;;4949360;29;20023;-36
2021/12/22 10:55:52;;;;;;;17.35;8.18;;;1.90;99.90;;;;;;4946016;29;20053;-35
2021/12/22 10:58:19;;;;;;;20.67;8.82;;;2.00;99.90;;;;;;4945125;29;20550;-38
2021/12/22 11:01:01;;;;;;;17.67;8.05;;;2.00;99.90;;;;;;4946766;29;20039;-30
2021/12/22 11:03:39;;;;;;;19.92;8.13;;;2.10;99.90;;;;;;4946730;29;20027;-39
2021/12/22 11:06:30;;;;;;;31.20;8.00;;;2.10;99.90;;;;;;4944953;28;20040;-40
2021/12/22 11:09:10;;;;;;;17.77;8.48;;;2.20;99.90;;;;;;4951028;29;20117;-35
2021/12/22 11:11:39;;;;;;;27.77;8.57;;;2.20;99.90;;;;;;4950277;29;20033;-36
2021/12/22 11:14:13;;;;;;;18.55;9.05;;;2.20;99.90;;;;;;4954379;29;20487;-37
2021/12/22 11:16:55;;;;;;;16.88;8.07;;;2.20;99.90;;;;;;4957513;29;20478;-39
2021/12/22 11:19:23;;;;;;;20.73;8.18;;;2.20;99.90;;;;;;4942774;29;20073;-32
2021/12/22 11:22:10;;;;;;;21.15;7.82;;;2.20;99.90;;;;;;4956023;29;20480;-35
2021/12/22 11:24:39;;;;;;;17.75;7.88;;;2.20;99.90;;;;;;4957197;29;20404;-37
2021/12/22 11:27:07;;;;;;;21.35;8.80;;;2.30;99.90;;;;;;4957724;29;20031;-41
2021/12/22 11:29:35;;;;;;;30.58;8.52;;;2.30;99.90;;;;;;4957398;29;20031;-37
2021/12/22 11:32:06;;;;;;;22.50;8.90;;;2.20;99.90;;;;;;4940744;29;20023;-40
2021/12/22 11:34:35;;;;;;;20.92;8.77;;;2.30;99.90;;;;;;4940077;29;20131;-42
2021/12/22 11:37:04;;;;;;;19.83;7.97;;;2.20;99.90;;;;;;4958130;29;20384;-31
2021/12/22 11:39:30;;;;;;;17.20;7.75;;;2.30;99.90;;;;;;4957908;29;20026;-31
2021/12/22 11:41:58;;;;;;;19.35;8.05;;;2.30;99.90;;;;;;4939881;29;20101;-41
2021/12/22 11:44:29;;;;;;;17.00;7.72;;;2.20;99.90;;;;;;4950058;29;20519;-36
2021/12/22 11:46:58;;;;;;;23.15;8.07;;;2.20;99.90;;;;;;4947916;29;20034;-34
2021/12/22 11:49:25;;;;;;;18.95;8.20;;;2.20;99.90;;;;;;4931763;29;20427;-36
2021/12/22 11:51:52;;;;;;;26.92;8.98;;;2.20;99.90;;;;;;4951100;29;20023;-33
2021/12/22 11:54:25;;;;;;;18.60;8.13;;;2.20;99.90;;;;;;4946959;29;20432;-33
2021/12/22 11:56:52;;;;;;;21.05;8.10;;;2.20;99.90;;;;;;4949263;29;20357;-39
2021/12/22 11:59:28;;;;;;;17.70;7.70;;;2.20;99.90;;;;;;4948968;29;20046;-36
2021/12/22 12:02:24;;;;;;;20.58;7.65;;;2.20;99.90;;;;;;4951118;29;20027;-34
2021/12/22 12:04:55;;;;;;;16.65;7.55;;;2.20;99.90;;;;;;4949356;29;20027;-36
2021/12/22 12:08:03;;;;;;;16.52;8.73;;;2.10;99.90;;;;;;4949257;29;20480;-42
2021/12/22 12:10:45;;;;;;;15.68;6.88;;;2.10;99.90;;;;;;4871998;29;20126;-33
2021/12/22 12:13:49;;;;;;;21.80;7.60;;;2.10;99.90;;;;;;4871280;29;20573;-34
2021/12/22 12:22:07;;;;;;;23.48;8.48;;;2.20;99.90;;;;;;4945191;29;20306;-31
2021/12/22 12:24:46;;;;;;;18.90;8.40;;;2.30;99.90;;;;;;4956465;29;20075;-34
2021/12/22 12:27:36;;;;;;;16.77;7.47;;;2.30;99.90;;;;;;4955738;29;20275;-33
2021/12/22 12:30:11;;;;;;;18.63;7.18;;;2.40;99.90;;;;;;4957165;29;20078;-39
2021/12/22 12:32:40;;;;;;;13.38;7.20;;;2.40;99.90;;;;;;4953782;29;20744;-32
2021/12/22 12:35:36;;;;;;;18.15;7.05;;;2.50;99.90;;;;;;4953005;29;20027;-32
2021/12/22 12:38:15;;;;;;;16.27;7.65;;;2.50;99.90;;;;;;4941109;29;20246;-39
2021/12/22 12:41:06;;;;;;;22.17;7.88;;;2.60;99.90;;;;;;4955072;29;20042;-38
2021/12/22 12:43:47;;;;;;;14.30;6.82;;;2.70;99.90;;;;;;4955265;29;20538;-35
2021/12/22 12:46:19;;;;;;;12.98;6.55;;;2.70;99.90;;;;;;4955988;29;20035;-33
2021/12/22 12:48:52;;;;;;;12.65;7.53;;;2.80;99.90;;;;;;4955641;29;20057;-35
2021/12/22 12:51:26;;;;;;;18.85;7.57;;;2.80;99.90;;;;;;4954475;29;20047;-33
2021/12/22 12:53:56;;;;;;;16.63;7.93;;;2.80;99.90;;;;;;4956181;29;20110;-40
2021/12/22 12:56:36;;;;;;;21.67;7.78;;;2.80;99.90;;;;;;4953060;29;20539;-36
2021/12/22 12:59:04;;;;;;;18.00;6.88;;;2.70;99.90;;;;;;4945038;29;20776;-35
2021/12/22 13:01:53;;;;;;;18.85;7.60;;;2.80;99.90;;;;;;4931725;29;20027;-36
2021/12/22 13:04:26;;;;;;;17.98;8.13;;;2.80;99.90;;;;;;4947657;29;20488;-33
2021/12/22 13:06:54;;;;;;;13.80;7.43;;;2.70;99.90;;;;;;4956426;29;20480;-36
2021/12/22 13:09:21;;;;;;;;;;;2.70;99.90;;;;;;4942794;29;20039;-36
2021/12/22 13:13:02;;;;;;;17.55;8.23;;;2.70;99.90;;;;;;4950888;29;19918;-33
2021/12/22 13:17:53;;;;;;;16.63;7.43;;;2.70;99.90;;;;;;4954224;29;20066;-35
2021/12/22 13:20:35;;;;;;;17.50;7.22;;;2.80;99.90;;;;;;4951413;29;20281;-32
2021/12/22 13:23:05;;;;;;;15.20;6.88;;;2.80;99.90;;;;;;4952245;29;20052;-34
2021/12/22 13:25:31;;;;;;;19.23;9.23;;;2.90;99.90;;;;;;4938720;29;20027;-34